Time,TemperatureF,DewpointF,PressureIn,WindDirection,WindDirectionDegrees,WindSpeedMPH,WindSpeedGustMPH,Humidity,HourlyPrecipIn,Conditions,Clouds,dailyrainin,SoftwareType,DateUTC
2013-01-21 00:02:00,14.0,5.0,-100.00,SW,224,6.0,11.0,68,0.00,,,-99.99,,2013-01-21 07:02:00,
2013-01-21 00:11:00,18.0,6.0,-100.00,WSW,248,10.0,11.0,60,0.00,,,-99.99,,2013-01-21 07:11:00,
2013-01-21 00:22:00,19.0,7.0,-100.00,WSW,254,15.0,16.0,58,0.00,,,-99.99,,2013-01-21 07:22:00,
2013-01-21 00:32:00,18.0,6.0,-100.00,WSW,251,12.0,12.0,59,0.00,,,-99.99,,2013-01-21 07:32:00,
2013-01-21 00:42:00,19.0,6.0,-100.00,WSW,256,15.0,17.0,58,0.00,,,-99.99,,2013-01-21 07:42:00,
2013-01-21 00:52:00,17.0,6.0,-100.00,WSW,256,17.0,18.0,61,0.00,,,-99.99,,2013-01-21 07:52:00,
2013-01-21 01:02:00,16.0,5.0,-100.00,WSW,246,14.0,15.0,63,0.00,,,-99.99,,2013-01-21 08:02:00,
2013-01-21 01:12:00,16.0,6.0,-100.00,WSW,257,17.0,17.0,64,0.00,,,-99.99,,2013-01-21 08:12:00,
2013-01-21 01:22:00,18.0,6.0,-100.00,WSW,258,17.0,19.0,61,0.00,,,-99.99,,2013-01-21 08:22:00,
2013-01-21 01:32:00,18.0,6.0,-100.00,WSW,257,16.0,17.0,60,0.00,,,-99.99,,2013-01-21 08:32:00,
2013-01-21 01:42:00,17.0,6.0,-100.00,WSW,251,16.0,17.0,60,0.00,,,-99.99,,2013-01-21 08:42:00,
2013-01-21 01:52:00,17.0,6.0,-100.00,WSW,257,16.0,17.0,62,0.00,,,-99.99,,2013-01-21 08:52:00,
2013-01-21 02:02:00,17.0,7.0,-100.00,WSW,253,16.0,17.0,63,0.00,,,-99.99,,2013-01-21 09:02:00,
2013-01-21 02:11:00,17.0,6.0,-100.00,WSW,253,15.0,16.0,62,0.00,,,-99.99,,2013-01-21 09:11:00,
2013-01-21 02:22:00,18.0,7.0,-100.00,WSW,251,16.0,17.0,61,0.00,,,-99.99,,2013-01-21 09:22:00,
2013-01-21 02:32:00,17.0,7.0,-100.00,WSW,257,13.0,14.0,62,0.00,,,-99.99,,2013-01-21 09:32:00,
2013-01-21 02:42:00,18.0,7.0,-100.00,WSW,251,14.0,15.0,63,0.00,,,-99.99,,2013-01-21 09:42:00,
2013-01-21 02:52:00,17.0,7.0,-100.00,WSW,254,14.0,14.0,64,0.00,,,-99.99,,2013-01-21 09:52:00,
2013-01-21 03:02:00,17.0,6.0,-100.00,WSW,257,15.0,16.0,63,0.00,,,-99.99,,2013-01-21 10:02:00,
2013-01-21 03:11:00,16.0,6.0,-100.00,West,260,13.0,15.0,63,0.00,,,-99.99,,2013-01-21 10:11:00,
2013-01-21 03:22:00,17.0,7.0,-100.00,WSW,248,16.0,17.0,64,0.00,,,-99.99,,2013-01-21 10:22:00,
2013-01-21 03:32:00,16.0,6.0,-100.00,WSW,256,17.0,18.0,65,0.00,,,-99.99,,2013-01-21 10:32:00,
2013-01-21 03:42:00,16.0,6.0,-100.00,WSW,253,17.0,18.0,65,0.00,,,-99.99,,2013-01-21 10:42:00,
2013-01-21 03:52:00,16.0,6.0,-100.00,West,260,17.0,18.0,65,0.00,,,-99.99,,2013-01-21 10:52:00,
2013-01-21 04:02:00,16.0,6.0,-100.00,WSW,257,17.0,18.0,65,0.00,,,-99.99,,2013-01-21 11:02:00,
2013-01-21 04:11:00,16.0,6.0,-100.00,West,260,19.0,21.0,65,0.00,,,-99.99,,2013-01-21 11:11:00,
2013-01-21 04:22:00,16.0,6.0,-100.00,West,267,16.0,20.0,65,0.00,,,-99.99,,2013-01-21 11:22:00,
2013-01-21 04:32:00,16.0,6.0,-100.00,West,261,17.0,19.0,66,0.00,,,-99.99,,2013-01-21 11:32:00,
2013-01-21 04:42:00,17.0,8.0,-100.00,WSW,254,19.0,21.0,66,0.00,,,-99.99,,2013-01-21 11:42:00,
2013-01-21 04:52:00,17.0,7.0,-100.00,WSW,254,19.0,21.0,64,0.00,,,-99.99,,2013-01-21 11:52:00,
2013-01-21 05:02:00,15.0,6.0,-100.00,WSW,248,17.0,19.0,69,0.00,,,-99.99,,2013-01-21 12:02:00,
2013-01-21 05:11:00,14.0,6.0,-100.00,WSW,244,20.0,22.0,70,0.00,,,-99.99,,2013-01-21 12:11:00,
2013-01-21 05:22:00,13.0,6.0,-100.00,WSW,251,19.0,20.0,72,0.00,,,-99.99,,2013-01-21 12:22:00,
2013-01-21 05:32:00,13.0,5.0,-100.00,WSW,256,16.0,17.0,72,0.00,,,-99.99,,2013-01-21 12:32:00,
2013-01-21 05:42:00,14.0,6.0,-100.00,WSW,250,12.0,13.0,69,0.00,,,-99.99,,2013-01-21 12:42:00,
2013-01-21 05:52:00,17.0,7.0,-100.00,West,260,12.0,14.0,65,0.00,,,-99.99,,2013-01-21 12:52:00,
2013-01-21 06:02:00,20.0,8.0,-100.00,WSW,251,15.0,16.0,60,0.00,,,-99.99,,2013-01-21 13:02:00,
2013-01-21 06:12:00,21.0,8.0,-100.00,WSW,257,16.0,17.0,58,0.00,,,-99.99,,2013-01-21 13:12:00,
2013-01-21 06:22:00,20.0,8.0,-100.00,West,268,15.0,18.0,60,0.00,,,-99.99,,2013-01-21 13:22:00,
2013-01-21 06:32:00,22.0,8.0,-100.00,WSW,250,17.0,20.0,55,0.00,,,-99.99,,2013-01-21 13:32:00,
2013-01-21 06:42:00,22.0,7.0,-100.00,WSW,251,17.0,19.0,53,0.00,,,-99.99,,2013-01-21 13:42:00,
2013-01-21 06:53:00,22.0,7.0,-100.00,WSW,240,19.0,21.0,53,0.00,,,-99.99,,2013-01-21 13:53:00,
2013-01-21 07:02:00,21.0,7.0,-100.00,WSW,250,18.0,21.0,54,0.00,,,-99.99,,2013-01-21 14:02:00,
2013-01-21 07:12:00,21.0,7.0,-100.00,WSW,253,18.0,19.0,55,0.00,,,-99.99,,2013-01-21 14:12:00,
2013-01-21 07:22:00,20.0,7.0,-100.00,WSW,250,20.0,21.0,57,0.00,,,-99.99,,2013-01-21 14:22:00,
2013-01-21 07:32:00,19.0,7.0,-100.00,WSW,253,19.0,21.0,58,0.00,,,-99.99,,2013-01-21 14:32:00,
2013-01-21 07:42:00,20.0,6.0,-100.00,West,260,17.0,19.0,56,0.00,,,-99.99,,2013-01-21 14:42:00,
2013-01-21 07:52:00,21.0,6.0,-100.00,WSW,246,21.0,23.0,53,0.00,,,-99.99,,2013-01-21 14:52:00,
2013-01-21 08:03:00,20.0,7.0,-100.00,WSW,243,21.0,24.0,56,0.00,,,-99.99,,2013-01-21 15:03:00,
2013-01-21 08:12:00,21.0,7.0,-100.00,WSW,248,19.0,21.0,55,0.00,,,-99.99,,2013-01-21 15:12:00,
2013-01-21 08:22:00,21.0,6.0,-100.00,WSW,250,17.0,19.0,53,0.00,,,-99.99,,2013-01-21 15:22:00,
2013-01-21 08:32:00,21.0,6.0,-100.00,WSW,247,20.0,22.0,50,0.00,,,-99.99,,2013-01-21 15:32:00,
2013-01-21 08:42:00,22.0,6.0,-100.00,WSW,250,20.0,22.0,50,0.00,,,-99.99,,2013-01-21 15:42:00,
2013-01-21 08:52:00,21.0,6.0,-100.00,WSW,250,18.0,21.0,51,0.00,,,-99.99,,2013-01-21 15:52:00,
2013-01-21 09:03:00,22.0,5.0,-100.00,WSW,257,19.0,22.0,47,0.00,,,-99.99,,2013-01-21 16:03:00,
2013-01-21 09:11:00,23.0,5.0,-100.00,WSW,253,18.0,22.0,45,0.00,,,-99.99,,2013-01-21 16:11:00,
2013-01-21 09:22:00,24.0,4.0,-100.00,WSW,254,18.0,20.0,42,0.00,,,-99.99,,2013-01-21 16:22:00,
2013-01-21 09:32:00,24.0,6.0,-100.00,WSW,248,17.0,20.0,45,0.00,,,-99.99,,2013-01-21 16:32:00,
2013-01-21 09:42:00,24.0,7.0,-100.00,WSW,253,16.0,17.0,47,0.00,,,-99.99,,2013-01-21 16:42:00,
2013-01-21 09:52:00,23.0,7.0,-100.00,WSW,247,18.0,20.0,49,0.00,,,-99.99,,2013-01-21 16:52:00,
2013-01-21 10:02:00,23.0,7.0,-100.00,WSW,244,20.0,22.0,49,0.00,,,-99.99,,2013-01-21 17:02:00,
2013-01-21 10:12:00,24.0,7.0,-100.00,WSW,241,22.0,25.0,49,0.00,,,-99.99,,2013-01-21 17:12:00,
2013-01-21 10:22:00,24.0,9.0,-100.00,WSW,243,21.0,24.0,53,0.00,,,-99.99,,2013-01-21 17:22:00,
2013-01-21 10:33:00,25.0,9.0,-100.00,WSW,248,21.0,23.0,50,0.00,,,-99.99,,2013-01-21 17:33:00,
2013-01-21 10:42:00,26.0,10.0,-100.00,WSW,246,21.0,23.0,50,0.00,,,-99.99,,2013-01-21 17:42:00,
2013-01-21 10:52:00,26.0,9.0,-100.00,WSW,247,19.0,24.0,48,0.00,,,-99.99,,2013-01-21 17:52:00,
2013-01-21 11:02:00,27.0,10.0,-100.00,WSW,247,20.0,25.0,48,0.00,,,-99.99,,2013-01-21 18:02:00,
2013-01-21 11:11:00,27.0,10.0,-100.00,WSW,246,19.0,22.0,47,0.00,,,-99.99,,2013-01-21 18:11:00,
2013-01-21 11:22:00,28.0,11.0,-100.00,WSW,250,16.0,19.0,48,0.00,,,-99.99,,2013-01-21 18:22:00,
2013-01-21 11:33:00,29.0,9.0,-100.00,WSW,251,17.0,20.0,42,0.00,,,-99.99,,2013-01-21 18:33:00,
2013-01-21 11:42:00,28.0,10.0,-100.00,WSW,240,19.0,22.0,46,0.00,,,-99.99,,2013-01-21 18:42:00,
2013-01-21 11:52:00,27.0,11.0,-100.00,WSW,246,22.0,24.0,50,0.00,,,-99.99,,2013-01-21 18:52:00,
2013-01-21 12:02:00,27.0,11.0,-100.00,WSW,240,22.0,25.0,50,0.00,,,-99.99,,2013-01-21 19:02:00,
2013-01-21 12:12:00,27.0,11.0,-100.00,WSW,240,24.0,26.0,50,0.00,,,-99.99,,2013-01-21 19:12:00,
2013-01-21 12:22:00,27.0,11.0,-100.00,WSW,237,24.0,26.0,50,0.00,,,-99.99,,2013-01-21 19:22:00,
2013-01-21 12:32:00,26.0,11.0,-100.00,WSW,247,25.0,29.0,54,0.00,,,-99.99,,2013-01-21 19:32:00,
2013-01-21 12:52:00,27.0,11.0,-100.00,WSW,250,26.0,29.0,51,0.00,,,-99.99,,2013-01-21 19:52:00,
2013-01-21 13:02:00,27.0,10.0,-100.00,WSW,250,28.0,32.0,48,0.00,,,-99.99,,2013-01-21 20:02:00,
2013-01-21 13:12:00,27.0,11.0,-100.00,WSW,250,27.0,31.0,49,0.00,,,-99.99,,2013-01-21 20:12:00,
2013-01-21 13:22:00,28.0,10.0,-100.00,WSW,243,26.0,32.0,47,0.00,,,-99.99,,2013-01-21 20:22:00,
2013-01-21 13:32:00,28.0,11.0,-100.00,WSW,240,26.0,29.0,49,0.00,,,-99.99,,2013-01-21 20:32:00,
2013-01-21 13:42:00,28.0,11.0,-100.00,WSW,241,23.0,29.0,49,0.00,,,-99.99,,2013-01-21 20:42:00,
2013-01-21 13:52:00,28.0,10.0,-100.00,WSW,240,26.0,30.0,47,0.00,,,-99.99,,2013-01-21 20:52:00,
2013-01-21 14:12:00,28.0,9.0,-100.00,WSW,243,31.0,39.0,43,0.00,,,-99.99,,2013-01-21 21:12:00,
2013-01-21 14:22:00,28.0,11.0,-100.00,WSW,243,26.0,30.0,49,0.00,,,-99.99,,2013-01-21 21:22:00,
2013-01-21 14:32:00,28.0,11.0,-100.00,WSW,237,26.0,29.0,46,0.00,,,-99.99,,2013-01-21 21:32:00,
2013-01-21 14:42:00,29.0,12.0,-100.00,WSW,237,24.0,30.0,49,0.00,,,-99.99,,2013-01-21 21:42:00,
2013-01-21 14:52:00,28.0,12.0,-100.00,WSW,237,22.0,28.0,50,0.00,,,-99.99,,2013-01-21 21:52:00,
2013-01-21 15:02:00,28.0,11.0,-100.00,WSW,241,26.0,29.0,48,0.00,,,-99.99,,2013-01-21 22:02:00,
2013-01-21 15:11:00,28.0,11.0,-100.00,WSW,244,24.0,29.0,48,0.00,,,-99.99,,2013-01-21 22:11:00,
2013-01-21 15:22:00,27.0,12.0,-100.00,WSW,240,26.0,29.0,51,0.00,,,-99.99,,2013-01-21 22:22:00,
2013-01-21 15:32:00,27.0,12.0,-100.00,SW,236,26.0,29.0,51,0.00,,,-99.99,,2013-01-21 22:32:00,
2013-01-21 15:42:00,28.0,12.0,-100.00,SW,230,24.0,27.0,51,0.00,,,-99.99,,2013-01-21 22:42:00,
2013-01-21 15:52:00,28.0,11.0,-100.00,SW,234,22.0,26.0,50,0.00,,,-99.99,,2013-01-21 22:52:00,
2013-01-21 16:02:00,28.0,11.0,-100.00,SW,230,21.0,22.0,49,0.00,,,-99.99,,2013-01-21 23:02:00,
2013-01-21 16:12:00,28.0,11.0,-100.00,SW,234,19.0,21.0,49,0.00,,,-99.99,,2013-01-21 23:12:00,
2013-01-21 16:22:00,28.0,11.0,-100.00,WSW,240,20.0,22.0,47,0.00,,,-99.99,,2013-01-21 23:22:00,
2013-01-21 16:32:00,28.0,11.0,-100.00,WSW,243,25.0,27.0,48,0.00,,,-99.99,,2013-01-21 23:32:00,
2013-01-21 16:42:00,28.0,10.0,-100.00,WSW,251,22.0,27.0,46,0.00,,,-99.99,,2013-01-21 23:42:00,
2013-01-21 16:52:00,27.0,12.0,-100.00,WSW,246,22.0,27.0,52,0.00,,,-99.99,,2013-01-21 23:52:00,
2013-01-21 17:02:00,27.0,10.0,-100.00,WSW,250,22.0,24.0,49,0.00,,,-99.99,,2013-01-22 00:02:00,
2013-01-21 17:11:00,26.0,11.0,-100.00,WSW,250,20.0,22.0,52,0.00,,,-99.99,,2013-01-22 00:11:00,
2013-01-21 17:22:00,26.0,9.0,-100.00,WSW,246,21.0,25.0,49,0.00,,,-99.99,,2013-01-22 00:22:00,
2013-01-21 17:32:00,23.0,11.0,-100.00,WSW,240,23.0,25.0,59,0.00,,,-99.99,,2013-01-22 00:32:00,
2013-01-21 17:42:00,24.0,10.0,-100.00,WSW,244,22.0,24.0,53,0.00,,,-99.99,,2013-01-22 00:42:00,
2013-01-21 17:52:00,26.0,9.0,-100.00,WSW,246,24.0,28.0,49,0.00,,,-99.99,,2013-01-22 00:52:00,
2013-01-21 18:02:00,26.0,9.0,-100.00,WSW,246,22.0,26.0,49,0.00,,,-99.99,,2013-01-22 01:02:00,
2013-01-21 18:12:00,26.0,8.0,-100.00,WSW,250,21.0,24.0,47,0.00,,,-99.99,,2013-01-22 01:12:00,
2013-01-21 18:22:00,27.0,7.0,-100.00,WSW,251,22.0,26.0,42,0.00,,,-99.99,,2013-01-22 01:22:00,
2013-01-21 18:32:00,27.0,6.0,-100.00,WSW,254,21.0,24.0,40,0.00,,,-99.99,,2013-01-22 01:32:00,
2013-01-21 18:42:00,27.0,6.0,-100.00,WSW,256,20.0,24.0,39,0.00,,,-99.99,,2013-01-22 01:42:00,
2013-01-21 18:52:00,27.0,6.0,-100.00,WSW,251,22.0,26.0,39,0.00,,,-99.99,,2013-01-22 01:52:00,
2013-01-21 19:02:00,27.0,5.0,-100.00,WSW,253,21.0,23.0,39,0.00,,,-99.99,,2013-01-22 02:02:00,
2013-01-21 19:12:00,27.0,6.0,-100.00,WSW,256,17.0,21.0,40,0.00,,,-99.99,,2013-01-22 02:12:00,
2013-01-21 19:22:00,26.0,6.0,-100.00,WSW,254,18.0,21.0,43,0.00,,,-99.99,,2013-01-22 02:22:00,
2013-01-21 19:32:00,26.0,6.0,-100.00,WSW,257,22.0,27.0,41,0.00,,,-99.99,,2013-01-22 02:32:00,
2013-01-21 19:42:00,27.0,6.0,-100.00,WSW,258,24.0,30.0,40,0.00,,,-99.99,,2013-01-22 02:42:00,
2013-01-21 19:52:00,27.0,5.0,-100.00,WSW,256,26.0,32.0,39,0.00,,,-99.99,,2013-01-22 02:52:00,
2013-01-21 20:02:00,27.0,5.0,-100.00,WSW,254,26.0,32.0,38,0.00,,,-99.99,,2013-01-22 03:02:00,
2013-01-21 20:12:00,28.0,5.0,-100.00,WSW,257,26.0,28.0,38,0.00,,,-99.99,,2013-01-22 03:12:00,
2013-01-21 20:22:00,26.0,5.0,-100.00,West,264,20.0,26.0,40,0.00,,,-99.99,,2013-01-22 03:22:00,
2013-01-21 20:32:00,26.0,5.0,-100.00,West,264,23.0,26.0,40,0.00,,,-99.99,,2013-01-22 03:32:00,
2013-01-21 20:42:00,26.0,6.0,-100.00,West,263,24.0,27.0,41,0.00,,,-99.99,,2013-01-22 03:42:00,
2013-01-21 20:52:00,26.0,6.0,-100.00,West,260,23.0,26.0,42,0.00,,,-99.99,,2013-01-22 03:52:00,
2013-01-21 21:02:00,26.0,5.0,-100.00,WSW,256,21.0,23.0,40,0.00,,,-99.99,,2013-01-22 04:02:00,
2013-01-21 21:11:00,26.0,5.0,-100.00,WSW,258,19.0,22.0,41,0.00,,,-99.99,,2013-01-22 04:11:00,
2013-01-21 21:22:00,25.0,5.0,-100.00,West,260,17.0,19.0,43,0.00,,,-99.99,,2013-01-22 04:22:00,
2013-01-21 21:32:00,24.0,5.0,-100.00,WSW,247,16.0,20.0,43,0.00,,,-99.99,,2013-01-22 04:32:00,
2013-01-21 21:42:00,24.0,5.0,-100.00,WSW,253,17.0,20.0,43,0.00,,,-99.99,,2013-01-22 04:42:00,
2013-01-21 21:52:00,25.0,5.0,-100.00,WSW,257,21.0,24.0,42,0.00,,,-99.99,,2013-01-22 04:52:00,
2013-01-21 22:03:00,25.0,4.0,-100.00,WSW,257,22.0,26.0,41,0.00,,,-99.99,,2013-01-22 05:03:00,
2013-01-21 22:11:00,25.0,4.0,-100.00,WSW,251,21.0,26.0,41,0.00,,,-99.99,,2013-01-22 05:11:00,
2013-01-21 22:22:00,25.0,4.0,-100.00,West,265,20.0,24.0,40,0.00,,,-99.99,,2013-01-22 05:22:00,
2013-01-21 22:32:00,25.0,4.0,-100.00,West,267,22.0,26.0,41,0.00,,,-99.99,,2013-01-22 05:32:00,
2013-01-21 22:42:00,26.0,3.0,-100.00,WSW,254,23.0,26.0,36,0.00,,,-99.99,,2013-01-22 05:42:00,
2013-01-21 22:52:00,26.0,1.0,-100.00,WSW,248,15.0,19.0,34,0.00,,,-99.99,,2013-01-22 05:52:00,
2013-01-21 23:02:00,28.0,0.0,-100.00,West,263,20.0,22.0,29,0.00,,,-99.99,,2013-01-22 06:02:00,
2013-01-21 23:11:00,29.0,0.0,-100.00,West,263,22.0,26.0,28,0.00,,,-99.99,,2013-01-22 06:11:00,
2013-01-21 23:22:00,29.0,0.0,-100.00,WSW,253,21.0,26.0,28,0.00,,,-99.99,,2013-01-22 06:22:00,
2013-01-21 23:32:00,30.0,0.0,-100.00,WSW,251,23.0,29.0,27,0.00,,,-99.99,,2013-01-22 06:32:00,
2013-01-21 23:42:00,30.0,0.0,-100.00,WSW,250,21.0,25.0,26,0.00,,,-99.99,,2013-01-22 06:42:00,
2013-01-21 23:52:00,33.0,-3.0,-100.00,WSW,257,26.0,30.0,21,0.00,,,-99.99,,2013-01-22 06:52:00,